UKLI

Ivano-Frankivsk International Airport

Ivano-Frankivsk, Ukraine
TAF AMD UKLI 181804Z 1818/1903 30005MPS 2100 -FZRASN BKN010 BKN015CB TXM00/1818Z TNM04/1903Z TEMPO 1818/1821 32010G15MPS 1200 FZRASN BKN003 BKN010CB
Issued Valid From Valid To
Jan-18 @ 18:04 UTC
(8 hours ago)
Jan-18 @ 18:00 UTC
(8 hours ago)
Jan-19 @ 03:00 UTC
(in 43 minutes)
Jan-18 @ 18:00 to Jan-19 @ 03:00
TAF AMD UKLI 181804Z 1818/1903 30005MPS 2100 -FZRASN BKN010 BKN015CB TXM00/1818Z TNM04/1903Z
Wind Visibility Clouds Conditions
300° at 10 knots 2,092 meters
  • Broken at 1,000' AGL
  • Broken at 1,500' AGL
  • Light Freezing
  • Light Rain
  • Snow
Expired Click to View Jan-18 @ 18:00 to Jan-18 @ 21:00
TEMPO 1818/1821 32010G15MPS 1200 FZRASN BKN003 BKN010CB
Wind Visibility Clouds Conditions
320° at 19 knots
 Gusting to 29 knots
1,207 meters
  • Broken at 300' AGL
  • Broken at 1,000' AGL
  • Freezing
  • Rain
  • Snow
TAF AMD UKLI 181804Z 1818/1903 30005MPS 2100 -FZRASN BKN010 BKN015CB TXM00/1818Z TNM04/1903Z TEMPO 1818/1821 32010G15MPS 1200 FZRASN BKN003 BKN010CB
Issued Jan-18 @ 18:04 UTC
(8 hours ago)
Valid From Jan-18 @ 18:00 UTC
(8 hours ago)
Valid To Jan-19 @ 03:00 UTC
(in 43 minutes)
Jan-18 @ 18:00 - Jan-19 @ 03:00
Wind Visibility
300° at 10 knots 2,092 meters
Clouds
  • Broken at 1,000' AGL
  • Broken at 1,500' AGL
Conditions
  • Light Freezing
  • Light Rain
  • Snow
Jan-18 @ 18:00 - Jan-18 @ 21:00
Wind Visibility
320° at 19 knots
 Gusting to 29 knots
1,207 meters
Clouds
  • Broken at 300' AGL
  • Broken at 1,000' AGL
Conditions
  • Freezing
  • Rain
  • Snow